Time;durP1;ratioP1;P1;durP2;ratioP2;P2;SDS_P1;SDS_P2;PMS_P1;PMS_P2;Temp;Humidity;BMP_temperature;BMP_pressure;BME280_temperature;BME280_humidity;BME280_pressure;Samples;Min_cycle;Max_cycle;Signal;HPM_P1;HPM_P2
2023/11/02 00:01:52;;;;;;;0.30;0.20;;;;;;;12.32;96.26;98374.91;5032786;28;20901;-51
2023/11/02 00:04:22;;;;;;;0.30;0.20;;;;;;;12.35;96.33;98366.75;5032850;28;20475;-51
2023/11/02 00:06:50;;;;;;;0.30;0.20;;;;;;;12.36;96.93;98357.81;5018530;28;20448;-51
2023/11/02 00:09:34;;;;;;;0.30;0.20;;;;;;;12.50;96.42;98364.88;5021323;28;20432;-51
2023/11/02 00:12:07;;;;;;;0.30;0.20;;;;;;;12.57;96.01;98362.63;5032658;28;20956;-51
2023/11/02 00:14:46;;;;;;;0.30;0.20;;;;;;;12.32;96.55;98356.28;5032946;28;20468;-51
2023/11/02 00:17:35;;;;;;;0.30;0.20;;;;;;;12.58;96.42;98348.34;5032856;28;20458;-51
2023/11/02 00:20:04;;;;;;;0.30;0.20;;;;;;;12.53;95.89;98353.13;5033605;28;20522;-50
2023/11/02 00:22:30;;;;;;;0.30;0.20;;;;;;;12.50;96.52;98348.03;5032642;28;20466;-51
2023/11/02 00:25:00;;;;;;;0.30;0.20;;;;;;;12.36;96.83;98335.63;5032535;28;20848;-51
2023/11/02 00:27:27;;;;;;;0.30;0.20;;;;;;;12.61;96.50;98341.00;5032097;28;20953;-51
2023/11/02 00:29:53;;;;;;;0.30;0.20;;;;;;;12.53;96.95;98332.69;5032540;28;20987;-51
2023/11/02 00:32:21;;;;;;;0.30;0.20;;;;;;;12.58;96.70;98335.88;5032510;28;20497;-51
2023/11/02 00:34:47;;;;;;;0.30;0.20;;;;;;;12.46;96.39;98337.56;5032191;28;21040;-51
2023/11/02 00:37:14;;;;;;;0.30;0.20;;;;;;;12.45;96.48;98327.84;5032379;28;20897;-51
2023/11/02 00:39:40;;;;;;;0.30;0.20;;;;;;;12.52;96.68;98319.47;5032192;28;20511;-51
2023/11/02 00:42:07;;;;;;;0.30;0.20;;;;;;;12.36;96.86;98306.31;5032577;28;20474;-51
2023/11/02 00:44:33;;;;;;;0.30;0.20;;;;;;;12.46;96.66;98297.56;5031045;28;20845;-51
2023/11/02 00:47:00;;;;;;;0.30;0.20;;;;;;;12.49;96.41;98287.69;5032701;28;20467;-51
2023/11/02 00:49:37;;;;;;;0.30;0.20;;;;;;;12.24;97.30;98288.50;5032377;28;20885;-51
2023/11/02 00:52:05;;;;;;;0.30;0.20;;;;;;;12.07;98.33;98282.50;5032236;28;20960;-51
2023/11/02 00:54:43;;;;;;;0.30;0.20;;;;;;;12.42;97.07;98279.25;5032175;28;20817;-51
2023/11/02 00:57:22;;;;;;;0.30;0.20;;;;;;;12.37;95.96;98273.41;5032114;28;20546;-51
2023/11/02 00:59:48;;;;;;;0.30;0.20;;;;;;;12.36;97.00;98261.88;5032183;28;20495;-50
2023/11/02 01:02:17;;;;;;;0.30;0.20;;;;;;;12.08;97.20;98246.94;5032271;28;20876;-50
2023/11/02 01:04:44;;;;;;;0.30;0.20;;;;;;;12.31;97.08;98236.50;5031936;28;21053;-51
2023/11/02 01:07:11;;;;;;;0.30;0.20;;;;;;;12.20;96.85;98228.38;5015008;28;20968;-51
2023/11/02 01:09:44;;;;;;;0.30;0.20;;;;;;;12.07;98.18;98226.59;5023197;28;20450;-51
2023/11/02 01:12:24;;;;;;;0.30;0.20;;;;;;;12.00;97.81;98219.94;5032114;28;20454;-51
2023/11/02 01:14:51;;;;;;;0.30;0.20;;;;;;;11.90;97.64;98207.34;5032088;28;20498;-51
2023/11/02 01:17:33;;;;;;;0.30;0.20;;;;;;;11.90;97.80;98186.91;5032035;28;20483;-51
2023/11/02 01:20:06;;;;;;;0.30;0.20;;;;;;;11.89;98.05;98185.22;5031996;28;20554;-50
2023/11/02 01:22:32;;;;;;;0.30;0.20;;;;;;;11.73;98.59;98172.06;5031974;28;20550;-51
2023/11/02 01:25:07;;;;;;;0.30;0.20;;;;;;;11.88;98.62;98164.88;5031784;28;20472;-51
2023/11/02 01:27:33;;;;;;;0.30;0.20;;;;;;;11.62;98.58;98150.63;5032197;28;20453;-51
2023/11/02 01:30:09;;;;;;;0.30;0.20;;;;;;;11.69;98.94;98143.94;5031791;28;20444;-50
2023/11/02 01:32:36;;;;;;;0.30;0.20;;;;;;;11.69;98.45;98137.78;5031951;28;20451;-51
2023/11/02 01:35:09;;;;;;;0.30;0.20;;;;;;;11.90;97.66;98127.50;5031932;28;20842;-50
2023/11/02 01:37:35;;;;;;;0.30;0.20;;;;;;;11.76;97.47;98121.28;5031767;28;20496;-51
2023/11/02 01:40:09;;;;;;;0.30;0.20;;;;;;;11.78;97.97;98126.47;5033375;28;20513;-51
2023/11/02 01:42:42;;;;;;;0.30;0.20;;;;;;;11.75;97.90;98121.38;5035938;28;20447;-50
2023/11/02 01:45:26;;;;;;;0.30;0.20;;;;;;;11.72;97.69;98114.47;5035674;28;20472;-51
2023/11/02 01:48:00;;;;;;;0.30;0.20;;;;;;;11.71;97.76;98106.59;5035513;28;20765;-51
2023/11/02 01:50:39;;;;;;;0.30;0.20;;;;;;;11.76;97.94;98088.47;5035757;28;20425;-51
2023/11/02 01:53:27;;;;;;;0.30;0.20;;;;;;;11.63;98.97;98085.81;5035745;28;20450;-51
2023/11/02 01:56:16;;;;;;;0.30;0.20;;;;;;;11.66;98.70;98077.63;5035356;28;20469;-51
2023/11/02 01:59:00;;;;;;;0.30;0.20;;;;;;;11.63;98.55;98059.19;5035557;28;20471;-51
2023/11/02 02:01:32;;;;;;;0.30;0.20;;;;;;;11.46;98.98;98040.88;5035448;28;20543;-51
2023/11/02 02:04:07;;;;;;;0.30;0.20;;;;;;;11.51;99.25;98036.09;5035038;28;20469;-51
2023/11/02 02:06:56;;;;;;;0.30;0.20;;;;;;;11.38;99.76;98017.47;5015463;28;20452;-51
2023/11/02 02:09:36;;;;;;;0.30;0.20;;;;;;;11.47;99.08;98010.66;5024816;28;20467;-52
2023/11/02 02:12:34;;;;;;;0.30;0.20;;;;;;;11.59;99.07;98015.13;5035327;28;20824;-50
2023/11/02 02:15:24;;;;;;;0.30;0.20;;;;;;;11.49;98.68;98016.72;5034694;28;20495;-51
2023/11/02 02:18:03;;;;;;;0.30;0.20;;;;;;;11.71;98.25;98024.09;5035371;28;20539;-51
2023/11/02 02:20:36;;;;;;;0.30;0.20;;;;;;;11.76;98.24;98013.97;5034953;28;20843;-51
2023/11/02 02:23:31;;;;;;;0.30;0.20;;;;;;;11.70;98.26;98009.06;5034771;28;20491;-50
2023/11/02 02:26:35;;;;;;;0.30;0.20;;;;;;;11.78;97.92;98010.22;5035168;28;20995;-51
2023/11/02 02:29:25;;;;;;;0.30;0.20;;;;;;;11.65;98.17;98012.06;5024645;28;20418;-50
2023/11/02 02:32:19;;;;;;;0.30;0.20;;;;;;;11.63;98.45;98005.13;5034940;28;20439;-50
2023/11/02 02:34:54;;;;;;;0.30;0.20;;;;;;;11.72;98.48;97989.38;5034760;28;20466;-51
2023/11/02 02:37:32;;;;;;;0.30;0.20;;;;;;;11.74;98.04;97990.13;5034868;28;20503;-50
2023/11/02 02:40:07;;;;;;;0.30;0.20;;;;;;;11.61;98.29;97983.94;5034377;28;20602;-50
2023/11/02 02:42:37;;;;;;;0.30;0.20;;;;;;;11.32;99.92;97978.00;5034821;28;20422;-50
2023/11/02 02:45:09;;;;;;;0.30;0.20;;;;;;;11.43;99.70;97974.59;5034644;28;20468;-51
2023/11/02 02:47:40;;;;;;;0.30;0.20;;;;;;;11.70;98.70;97969.16;5033340;28;20515;-51
2023/11/02 02:50:09;;;;;;;0.30;0.20;;;;;;;11.62;98.31;97976.81;5034133;28;20843;-50
2023/11/02 02:52:38;;;;;;;0.30;0.20;;;;;;;11.57;99.54;97987.78;5034191;28;20945;-50
2023/11/02 02:55:07;;;;;;;0.30;0.20;;;;;;;11.79;98.50;97981.84;5034552;28;20467;-51
2023/11/02 02:57:38;;;;;;;0.30;0.20;;;;;;;11.79;97.70;97969.41;5034429;28;20455;-50
2023/11/02 03:00:07;;;;;;;0.30;0.20;;;;;;;11.62;97.86;97961.69;5034274;28;20916;-51
2023/11/02 03:02:34;;;;;;;0.30;0.20;;;;;;;11.83;97.22;97954.91;5030827;28;20456;-51
2023/11/02 03:05:03;;;;;;;0.30;0.20;;;;;;;11.75;98.15;97946.56;5020584;28;21057;-51
2023/11/02 03:07:31;;;;;;;0.30;0.20;;;;;;;12.06;97.34;97949.72;5027893;28;20544;-51
2023/11/02 03:10:00;;;;;;;0.30;0.20;;;;;;;11.97;97.20;97935.28;5027099;28;20504;-51
2023/11/02 03:12:30;;;;;;;0.30;0.20;;;;;;;12.08;96.90;97934.50;5033937;28;20802;-51
2023/11/02 03:15:04;;;;;;;0.30;0.20;;;;;;;12.13;96.26;97921.69;5033772;28;20529;-51
2023/11/02 03:17:56;;;;;;;0.30;0.20;;;;;;;11.90;95.89;97911.84;5033842;28;20448;-51
2023/11/02 03:20:23;;;;;;;0.30;0.20;;;;;;;11.75;97.31;97901.31;5033916;28;20495;-51
2023/11/02 03:22:49;;;;;;;0.30;0.20;;;;;;;11.75;97.17;97897.81;5033930;28;20554;-51
2023/11/02 03:25:43;;;;;;;0.30;0.20;;;;;;;11.66;97.07;97898.50;5033580;28;20909;-51
2023/11/02 03:28:34;;;;;;;0.30;0.20;;;;;;;11.69;95.89;97887.63;5033832;28;20452;-51
2023/11/02 03:31:11;;;;;;;0.30;0.20;;;;;;;11.79;95.40;97875.41;5034041;28;20490;-50
2023/11/02 03:33:59;;;;;;;0.30;0.20;;;;;;;11.83;94.53;97874.19;5013884;28;20944;-50
2023/11/02 03:36:57;;;;;;;0.30;0.20;;;;;;;11.89;94.67;97856.94;5031803;28;20534;-51
2023/11/02 03:39:51;;;;;;;0.30;0.20;;;;;;;11.97;95.07;97841.25;5033300;28;20921;-50
2023/11/02 03:42:31;;;;;;;0.30;0.20;;;;;;;11.85;95.30;97827.88;5033461;28;20523;-50
2023/11/02 03:45:37;;;;;;;0.30;0.20;;;;;;;11.93;94.60;97832.66;5033320;28;21039;-51
2023/11/02 03:48:25;;;;;;;0.30;0.20;;;;;;;12.02;94.92;97821.28;4998180;28;20459;-51
2023/11/02 03:51:17;;;;;;;0.30;0.20;;;;;;;11.92;94.79;97828.25;5033288;28;20502;-51
2023/11/02 03:54:14;;;;;;;0.30;0.20;;;;;;;11.92;94.19;97800.78;5032146;28;20443;-51
2023/11/02 03:57:09;;;;;;;0.30;0.20;;;;;;;11.99;94.51;97810.88;5033529;28;20444;-50
2023/11/02 03:59:47;;;;;;;0.30;0.20;;;;;;;11.90;93.61;97794.72;5033632;28;20487;-51
2023/11/02 04:02:28;;;;;;;0.30;0.20;;;;;;;12.22;93.23;97789.69;5032276;28;20972;-51
2023/11/02 04:05:10;;;;;;;0.40;0.30;;;;;;;12.32;93.08;97794.19;5032805;28;20561;-51
2023/11/02 04:08:10;;;;;;;0.30;0.20;;;;;;;12.43;92.47;97804.03;5020217;28;20539;-51
2023/11/02 04:10:47;;;;;;;0.30;0.20;;;;;;;12.15;92.60;97798.13;5032920;28;20933;-51
2023/11/02 04:13:37;;;;;;;0.30;0.20;;;;;;;12.10;92.76;97778.13;5033473;28;20467;-51
2023/11/02 04:16:04;;;;;;;0.30;0.20;;;;;;;11.86;93.79;97747.06;5024915;28;20462;-51
2023/11/02 04:18:31;;;;;;;0.30;0.20;;;;;;;12.11;93.23;97748.72;5033000;28;20451;-51
2023/11/02 04:20:58;;;;;;;0.30;0.20;;;;;;;12.11;93.51;97745.22;5032674;28;20943;-51
2023/11/02 04:23:24;;;;;;;0.30;0.20;;;;;;;12.11;93.64;97750.53;5032734;28;20459;-51
2023/11/02 04:25:54;;;;;;;0.30;0.20;;;;;;;11.99;92.91;97744.31;5032779;28;20483;-50
2023/11/02 04:28:21;;;;;;;0.30;0.20;;;;;;;11.92;93.88;97735.09;5032469;28;20448;-50
2023/11/02 04:30:48;;;;;;;0.30;0.20;;;;;;;11.78;95.04;97736.09;5032562;28;20966;-50
2023/11/02 04:33:15;;;;;;;0.30;0.20;;;;;;;11.79;94.30;97721.03;5032555;28;20452;-51
2023/11/02 04:35:42;;;;;;;0.30;0.20;;;;;;;11.63;95.32;97699.13;5032508;28;20472;-51
2023/11/02 04:38:09;;;;;;;0.30;0.20;;;;;;;11.66;95.65;97680.31;5032491;28;20451;-51
2023/11/02 04:40:39;;;;;;;0.30;0.20;;;;;;;12.08;94.72;97687.72;5032403;28;20488;-51
2023/11/02 04:43:06;;;;;;;0.30;0.20;;;;;;;12.08;95.42;97689.53;5032587;28;20451;-51
2023/11/02 04:45:34;;;;;;;0.30;0.20;;;;;;;11.96;95.28;97686.00;5032492;28;20517;-51
2023/11/02 04:48:02;;;;;;;0.30;0.20;;;;;;;11.89;94.95;97675.91;5032439;28;20483;-51
2023/11/02 04:50:29;;;;;;;0.30;0.20;;;;;;;12.11;94.81;97674.16;5032449;28;20422;-51
2023/11/02 04:52:55;;;;;;;0.30;0.20;;;;;;;11.68;96.40;97665.91;5032347;28;20426;-51
2023/11/02 04:55:22;;;;;;;0.30;0.20;;;;;;;11.74;97.47;97675.22;5032183;28;20499;-51
2023/11/02 04:57:48;;;;;;;0.30;0.20;;;;;;;11.67;97.47;97672.19;5032474;28;20839;-50
2023/11/02 05:00:15;;;;;;;0.30;0.20;;;;;;;11.76;97.64;97671.47;5032243;28;20502;-51
2023/11/02 05:02:42;;;;;;;0.30;0.20;;;;;;;11.93;97.72;97650.78;5032317;28;20463;-51
2023/11/02 05:05:08;;;;;;;0.30;0.20;;;;;;;11.71;97.64;97655.03;5031940;28;20841;-51
2023/11/02 05:07:35;;;;;;;0.30;0.20;;;;;;;11.56;98.95;97651.72;5032228;28;20463;-51
2023/11/02 05:10:03;;;;;;;0.30;0.20;;;;;;;11.66;98.94;97649.22;5032288;28;20455;-50
2023/11/02 05:12:30;;;;;;;0.30;0.20;;;;;;;11.50;99.05;97638.00;5032224;28;20838;-51
2023/11/02 05:14:57;;;;;;;0.30;0.20;;;;;;;11.36;100.00;97630.22;5035090;28;20857;-50
2023/11/02 05:17:23;;;;;;;0.30;0.20;;;;;;;11.39;100.00;97630.84;5036275;28;20868;-51
2023/11/02 05:19:49;;;;;;;0.30;0.20;;;;;;;11.54;100.00;97628.84;5035953;28;20960;-51
2023/11/02 05:22:16;;;;;;;0.30;0.20;;;;;;;11.63;99.74;97632.63;5036031;28;20455;-51
2023/11/02 05:24:42;;;;;;;0.30;0.20;;;;;;;11.62;99.59;97634.41;5035751;28;21067;-51
2023/11/02 05:27:09;;;;;;;0.30;0.20;;;;;;;11.74;99.72;97617.53;5036019;28;21031;-51
2023/11/02 05:29:35;;;;;;;0.30;0.20;;;;;;;11.61;100.00;97619.44;5036054;28;20451;-51
2023/11/02 05:32:02;;;;;;;0.30;0.20;;;;;;;11.40;100.00;97600.63;5035832;28;20444;-50
2023/11/02 05:34:28;;;;;;;0.30;0.20;;;;;;;11.26;100.00;97600.81;5035772;28;20468;-51
2023/11/02 05:36:55;;;;;;;0.30;0.20;;;;;;;11.46;100.00;97583.34;5035803;28;20480;-51
2023/11/02 05:39:21;;;;;;;0.30;0.20;;;;;;;11.63;100.00;97590.88;5035869;28;20451;-51
2023/11/02 05:41:48;;;;;;;0.30;0.20;;;;;;;11.68;100.00;97588.75;5035681;28;20992;-51
2023/11/02 05:44:14;;;;;;;0.30;0.20;;;;;;;11.64;100.00;97575.78;5035825;28;20471;-51
2023/11/02 05:46:41;;;;;;;0.30;0.20;;;;;;;11.62;100.00;97567.91;5035254;28;20451;-51
2023/11/02 05:49:08;;;;;;;0.30;0.20;;;;;;;11.91;100.00;97575.50;5034727;28;20495;-51
2023/11/02 05:51:34;;;;;;;0.30;0.20;;;;;;;12.00;100.00;97558.81;5028469;28;20540;-51
2023/11/02 05:54:01;;;;;;;0.30;0.20;;;;;;;12.02;100.00;97552.38;5030740;28;20513;-50
2023/11/02 05:56:28;;;;;;;0.30;0.20;;;;;;;11.46;100.00;97544.28;5035703;28;20505;-51
2023/11/02 05:58:57;;;;;;;0.30;0.20;;;;;;;11.46;100.00;97549.63;5028859;28;20495;-51
2023/11/02 06:01:24;;;;;;;0.30;0.20;;;;;;;11.49;100.00;97544.06;5027132;28;20487;-51
2023/11/02 06:03:51;;;;;;;0.30;0.20;;;;;;;11.68;100.00;97558.63;5034463;28;20911;-51
2023/11/02 06:06:17;;;;;;;0.30;0.20;;;;;;;11.81;100.00;97560.25;5033052;28;20460;-51
2023/11/02 06:08:44;;;;;;;0.30;0.20;;;;;;;11.78;100.00;97539.16;5021958;28;20829;-51
2023/11/02 06:11:10;;;;;;;0.30;0.20;;;;;;;11.37;100.00;97517.53;5035274;28;20470;-51
2023/11/02 06:13:38;;;;;;;0.30;0.20;;;;;;;11.33;100.00;97498.31;5030138;28;20544;-51
2023/11/02 06:16:06;;;;;;;0.30;0.20;;;;;;;11.32;100.00;97464.72;5029510;28;20444;-51
2023/11/02 06:18:33;;;;;;;0.30;0.20;;;;;;;11.35;100.00;97488.41;5030666;28;20814;-50
2023/11/02 06:20:59;;;;;;;0.30;0.20;;;;;;;11.49;100.00;97495.31;5028295;28;20494;-50
2023/11/02 06:23:26;;;;;;;0.30;0.20;;;;;;;11.64;100.00;97514.56;5031899;28;20460;-50
2023/11/02 06:25:52;;;;;;;0.30;0.20;;;;;;;11.94;100.00;97517.56;5034000;28;20475;-50
2023/11/02 06:28:19;;;;;;;0.30;0.20;;;;;;;11.71;100.00;97511.34;5034760;28;20459;-50
2023/11/02 06:30:46;;;;;;;0.30;0.20;;;;;;;11.89;100.00;97517.06;5033833;28;20535;-51
2023/11/02 06:33:23;;;;;;;0.30;0.20;;;;;;;11.71;100.00;97511.34;5028928;28;20449;-51
2023/11/02 06:35:49;;;;;;;0.30;0.20;;;;;;;11.64;100.00;97502.13;5030631;28;20481;-51
2023/11/02 06:38:17;;;;;;;0.30;0.20;;;;;;;11.66;100.00;97494.03;5032253;28;21009;-51
2023/11/02 06:40:44;;;;;;;0.30;0.20;;;;;;;11.58;100.00;97495.47;5015426;28;20527;-50
2023/11/02 06:43:10;;;;;;;0.30;0.20;;;;;;;11.69;100.00;97485.81;5034391;28;20929;-51
2023/11/02 06:45:37;;;;;;;0.30;0.20;;;;;;;11.46;100.00;97458.34;5033646;28;20899;-50
2023/11/02 06:48:03;;;;;;;0.30;0.20;;;;;;;11.37;100.00;97414.66;5026949;28;20454;-51
2023/11/02 06:50:30;;;;;;;0.30;0.20;;;;;;;11.47;100.00;97426.28;5031925;28;20543;-51
2023/11/02 06:52:56;;;;;;;0.30;0.20;;;;;;;11.41;100.00;97453.38;5025692;28;20535;-51
2023/11/02 06:55:23;;;;;;;0.30;0.20;;;;;;;11.34;100.00;97430.88;5033827;28;20547;-51
2023/11/02 06:57:49;;;;;;;0.30;0.20;;;;;;;11.17;100.00;97396.78;5026411;28;20452;-50
2023/11/02 07:00:16;;;;;;;0.30;0.20;;;;;;;11.07;100.00;97308.06;5020061;28;20484;-51
2023/11/02 07:02:43;;;;;;;0.30;0.20;;;;;;;10.89;100.00;97297.91;5024099;28;20498;-50
2023/11/02 07:05:10;;;;;;;0.30;0.20;;;;;;;11.14;100.00;97277.41;5033008;28;20585;-51
2023/11/02 07:07:38;;;;;;;0.30;0.20;;;;;;;10.65;100.00;97258.16;5032425;28;20456;-49
2023/11/02 07:10:08;;;;;;;0.30;0.20;;;;;;;10.81;100.00;97273.75;5023856;28;20464;-48
2023/11/02 07:12:36;;;;;;;0.30;0.20;;;;;;;11.07;100.00;97284.16;5027006;28;20459;-48
2023/11/02 07:15:03;;;;;;;0.30;0.20;;;;;;;10.98;100.00;97318.47;5020245;28;20546;-50
2023/11/02 07:17:29;;;;;;;0.30;0.20;;;;;;;11.27;100.00;97400.41;5033270;28;20819;-48
2023/11/02 07:19:56;;;;;;;0.30;0.20;;;;;;;11.30;100.00;97415.28;5033981;28;20605;-49
2023/11/02 07:22:22;;;;;;;0.30;0.20;;;;;;;11.23;100.00;97420.22;5033801;28;20578;-50
2023/11/02 07:24:49;;;;;;;0.30;0.20;;;;;;;11.26;100.00;97417.34;5020192;28;20479;-49
2023/11/02 07:27:16;;;;;;;0.30;0.20;;;;;;;11.38;100.00;97388.94;5033722;28;20452;-49
2023/11/02 07:29:44;;;;;;;0.30;0.20;;;;;;;11.38;100.00;97384.47;5033502;28;20451;-48
2023/11/02 07:32:10;;;;;;;0.30;0.20;;;;;;;11.43;100.00;97381.44;5033822;28;20447;-49
2023/11/02 07:34:37;;;;;;;0.30;0.20;;;;;;;11.43;100.00;97390.28;5034181;28;20468;-49
2023/11/02 07:37:03;;;;;;;0.30;0.20;;;;;;;11.52;100.00;97386.91;5032653;28;20929;-48
2023/11/02 07:39:30;;;;;;;0.30;0.20;;;;;;;11.57;100.00;97370.56;5033380;28;20505;-51
2023/11/02 07:41:56;;;;;;;0.30;0.20;;;;;;;11.60;100.00;97382.75;5033393;28;20463;-48
2023/11/02 07:44:23;;;;;;;0.30;0.20;;;;;;;11.66;100.00;97382.28;5033127;28;20923;-49
2023/11/02 07:46:49;;;;;;;0.30;0.20;;;;;;;11.57;100.00;97366.09;5033675;28;20535;-49
2023/11/02 07:49:16;;;;;;;0.30;0.20;;;;;;;11.67;100.00;97368.88;5033422;28;20458;-49
2023/11/02 07:51:43;;;;;;;0.30;0.20;;;;;;;11.54;100.00;97361.00;5033464;28;20495;-49
2023/11/02 07:54:09;;;;;;;0.30;0.20;;;;;;;11.59;100.00;97336.69;5033141;28;20786;-49
2023/11/02 07:56:36;;;;;;;0.30;0.20;;;;;;;11.56;100.00;97388.34;5033231;28;20937;-49
2023/11/02 07:59:03;;;;;;;0.30;0.20;;;;;;;11.66;100.00;97367.19;5032962;28;20576;-49
2023/11/02 08:01:30;;;;;;;0.30;0.20;;;;;;;11.51;100.00;97323.16;5032995;28;21010;-49
2023/11/02 08:03:56;;;;;;;0.30;0.20;;;;;;;11.61;100.00;97372.00;5033192;28;20463;-48
2023/11/02 08:06:23;;;;;;;0.30;0.20;;;;;;;11.60;100.00;97354.34;5023794;28;20449;-48
2023/11/02 08:08:51;;;;;;;0.30;0.20;;;;;;;11.68;100.00;97362.56;5015844;28;20453;-49
2023/11/02 08:11:17;;;;;;;0.30;0.20;;;;;;;11.76;100.00;97356.63;5033019;28;20447;-49
2023/11/02 08:13:44;;;;;;;0.30;0.20;;;;;;;11.93;100.00;97331.34;5032736;28;20521;-49
2023/11/02 08:16:10;;;;;;;0.30;0.20;;;;;;;11.89;100.00;97303.28;5032826;28;20444;-49
2023/11/02 08:18:37;;;;;;;0.30;0.20;;;;;;;11.89;100.00;97306.78;5032674;28;21027;-49
2023/11/02 08:21:07;;;;;;;0.30;0.20;;;;;;;11.76;100.00;97274.97;5032838;28;20488;-49
2023/11/02 08:23:35;;;;;;;0.30;0.20;;;;;;;11.81;100.00;97251.53;5032628;28;20463;-49
2023/11/02 08:26:01;;;;;;;0.30;0.20;;;;;;;12.05;100.00;97287.72;5032754;28;20427;-49
2023/11/02 08:28:28;;;;;;;0.30;0.20;;;;;;;12.20;100.00;97306.91;5032955;28;20483;-49
2023/11/02 08:30:58;;;;;;;0.30;0.20;;;;;;;11.99;100.00;97257.16;5033407;28;20440;-49
2023/11/02 08:33:24;;;;;;;0.30;0.20;;;;;;;11.90;100.00;97239.25;5032938;28;20447;-49
2023/11/02 08:35:51;;;;;;;0.30;0.20;;;;;;;12.09;100.00;97236.78;5032955;28;20537;-49
2023/11/02 08:38:17;;;;;;;0.30;0.20;;;;;;;11.98;100.00;97241.31;5032506;28;20526;-48
2023/11/02 08:40:44;;;;;;;0.30;0.20;;;;;;;12.09;100.00;97258.06;5032397;28;20538;-50
2023/11/02 08:43:10;;;;;;;0.30;0.20;;;;;;;12.24;100.00;97273.75;5032563;28;20483;-49
2023/11/02 08:45:37;;;;;;;0.30;0.20;;;;;;;12.42;100.00;97258.88;5031406;28;20558;-49
2023/11/02 08:48:04;;;;;;;0.30;0.20;;;;;;;12.39;100.00;97248.47;5032266;28;20462;-49
2023/11/02 08:50:31;;;;;;;0.30;0.20;;;;;;;12.22;100.00;97217.94;5032170;28;20451;-49
2023/11/02 08:52:57;;;;;;;0.30;0.20;;;;;;;12.32;100.00;97212.66;5019265;28;20804;-50
2023/11/02 08:55:23;;;;;;;0.30;0.20;;;;;;;12.29;100.00;97231.56;5032099;28;20467;-49
2023/11/02 08:57:50;;;;;;;0.30;0.20;;;;;;;12.32;100.00;97247.28;5032458;28;20451;-49
2023/11/02 09:00:17;;;;;;;0.30;0.20;;;;;;;12.57;100.00;97257.56;5032177;28;20530;-49
2023/11/02 09:02:44;;;;;;;0.30;0.20;;;;;;;12.39;100.00;97248.47;5032109;28;20860;-49
2023/11/02 09:05:11;;;;;;;0.30;0.20;;;;;;;12.46;100.00;97254.97;5031063;28;20478;-48
2023/11/02 09:07:37;;;;;;;0.30;0.20;;;;;;;12.59;100.00;97244.94;5012506;28;20514;-49
2023/11/02 09:10:05;;;;;;;0.30;0.20;;;;;;;12.56;100.00;97245.22;5026618;28;21019;-49
2023/11/02 09:12:32;;;;;;;0.30;0.20;;;;;;;12.57;100.00;97238.06;5032061;28;20492;-49
2023/11/02 09:14:58;;;;;;;0.30;0.20;;;;;;;12.53;100.00;97237.50;5031847;28;20497;-51
2023/11/02 09:17:25;;;;;;;0.30;0.20;;;;;;;12.62;100.00;97220.72;5031998;28;20497;-49
2023/11/02 09:19:51;;;;;;;0.30;0.20;;;;;;;12.86;100.00;97228.38;5031967;28;20454;-49
2023/11/02 09:22:18;;;;;;;0.30;0.20;;;;;;;12.79;100.00;97240.56;5031651;28;20513;-49
2023/11/02 09:24:44;;;;;;;0.30;0.20;;;;;;;12.86;100.00;97224.88;5031786;28;20893;-49
2023/11/02 09:27:11;;;;;;;0.30;0.20;;;;;;;12.74;100.00;97232.97;5031742;28;20971;-49
2023/11/02 09:29:39;;;;;;;0.30;0.20;;;;;;;12.88;100.00;97236.25;5032051;28;20513;-49
2023/11/02 09:32:06;;;;;;;0.30;0.20;;;;;;;13.04;100.00;97241.97;5031978;28;20444;-50
2023/11/02 09:34:38;;;;;;;0.30;0.20;;;;;;;13.06;99.96;97224.00;5030681;28;21051;-49
2023/11/02 09:37:05;;;;;;;0.30;0.20;;;;;;;12.78;100.00;97196.25;5031841;28;20869;-50
2023/11/02 09:39:32;;;;;;;0.30;0.20;;;;;;;12.98;100.00;97213.16;5031768;28;21142;-50
2023/11/02 09:41:59;;;;;;;0.30;0.20;;;;;;;13.01;100.00;97200.38;5031986;28;20498;-50
2023/11/02 09:44:27;;;;;;;0.30;0.20;;;;;;;13.08;99.98;97195.38;5031843;28;20471;-49
2023/11/02 09:46:53;;;;;;;0.30;0.20;;;;;;;12.88;100.00;97181.09;5030672;28;20536;-49
2023/11/02 09:49:20;;;;;;;0.30;0.20;;;;;;;13.07;100.00;97182.19;5031644;28;20453;-50
2023/11/02 09:51:50;;;;;;;0.30;0.20;;;;;;;13.10;99.62;97198.75;5032007;28;20502;-50
2023/11/02 09:54:16;;;;;;;0.30;0.20;;;;;;;13.27;99.24;97208.78;5031601;28;20483;-48
2023/11/02 09:56:44;;;;;;;0.30;0.20;;;;;;;13.25;98.99;97205.41;5031871;28;20426;-48
2023/11/02 09:59:10;;;;;;;0.30;0.20;;;;;;;13.43;98.92;97202.94;5031499;28;20458;-49
2023/11/02 10:01:38;;;;;;;0.30;0.20;;;;;;;13.41;98.91;97172.03;5033746;28;20999;-48
2023/11/02 10:04:05;;;;;;;0.30;0.20;;;;;;;13.55;99.03;97179.63;5034664;28;20454;-49
2023/11/02 10:06:32;;;;;;;0.30;0.20;;;;;;;13.52;99.19;97190.56;5024334;28;20543;-48
2023/11/02 10:08:59;;;;;;;0.30;0.20;;;;;;;13.70;98.98;97202.25;5019930;28;20982;-48
2023/11/02 10:11:25;;;;;;;0.50;0.50;;;;;;;13.75;98.09;97213.38;5035253;28;21002;-48
2023/11/02 10:13:53;;;;;;;0.30;0.20;;;;;;;13.93;97.05;97209.00;5035666;28;20452;-51
2023/11/02 10:16:24;;;;;;;0.30;0.20;;;;;;;13.86;96.97;97210.56;5035077;28;20800;-50
2023/11/02 10:18:51;;;;;;;0.30;0.20;;;;;;;14.01;97.15;97220.81;5035194;28;20531;-50
2023/11/02 10:21:21;;;;;;;0.30;0.20;;;;;;;13.98;96.70;97216.63;5034757;28;21026;-50
2023/11/02 10:23:55;;;;;;;0.30;0.20;;;;;;;13.99;96.67;97204.94;5027560;28;20839;-50
2023/11/02 10:26:28;;;;;;;0.30;0.20;;;;;;;14.19;95.96;97198.59;5029782;28;20475;-51
2023/11/02 10:28:58;;;;;;;0.30;0.20;;;;;;;14.12;95.49;97185.97;5034795;28;20538;-50
2023/11/02 10:31:30;;;;;;;0.30;0.20;;;;;;;14.29;95.68;97176.38;5034930;28;20506;-50
2023/11/02 10:33:59;;;;;;;0.30;0.20;;;;;;;14.27;95.27;97189.88;5034889;28;20916;-50
2023/11/02 10:36:26;;;;;;;0.30;0.20;;;;;;;14.33;95.03;97197.31;5034645;28;20463;-51
2023/11/02 10:38:52;;;;;;;0.30;0.20;;;;;;;14.32;94.65;97174.25;5034712;28;20448;-51
2023/11/02 10:41:19;;;;;;;0.30;0.20;;;;;;;14.36;94.22;97156.94;5034419;28;20538;-51
2023/11/02 10:43:47;;;;;;;0.30;0.20;;;;;;;14.29;93.80;97157.66;5034540;28;20452;-50
2023/11/02 10:46:15;;;;;;;0.30;0.20;;;;;;;14.17;93.64;97141.78;5034495;28;20422;-50
2023/11/02 10:48:43;;;;;;;0.30;0.20;;;;;;;14.13;93.16;97163.59;5034528;28;20513;-51
2023/11/02 10:51:15;;;;;;;0.30;0.20;;;;;;;14.36;92.29;97169.44;5034293;28;20451;-51
2023/11/02 10:54:07;;;;;;;0.30;0.20;;;;;;;14.38;92.04;97178.16;5034404;28;20506;-51
2023/11/02 10:56:49;;;;;;;0.30;0.20;;;;;;;14.47;92.29;97186.19;5024578;28;20422;-51
2023/11/02 10:59:15;;;;;;;0.30;0.20;;;;;;;14.48;92.59;97184.34;5034518;28;20454;-51
2023/11/02 11:01:42;;;;;;;0.30;0.20;;;;;;;14.43;92.83;97181.25;5034122;28;20492;-51
2023/11/02 11:04:10;;;;;;;0.30;0.20;;;;;;;14.48;91.49;97179.00;5033732;28;20507;-51
2023/11/02 11:06:42;;;;;;;0.30;0.20;;;;;;;14.54;90.70;97204.34;5021616;28;20941;-50
2023/11/02 11:09:11;;;;;;;0.30;0.20;;;;;;;14.62;90.38;97220.47;5021030;28;20426;-50
2023/11/02 11:11:38;;;;;;;0.30;0.20;;;;;;;14.55;89.98;97225.56;5034205;28;20446;-50
2023/11/02 11:14:06;;;;;;;0.30;0.20;;;;;;;14.55;89.83;97219.38;5033928;28;20442;-51
2023/11/02 11:16:34;;;;;;;0.30;0.20;;;;;;;14.63;89.74;97203.44;5033746;28;20525;-51
2023/11/02 11:19:00;;;;;;;0.30;0.20;;;;;;;14.57;89.74;97223.59;5033894;28;20538;-51
2023/11/02 11:21:27;;;;;;;0.30;0.20;;;;;;;14.55;90.08;97216.72;5033891;28;20426;-51
2023/11/02 11:23:55;;;;;;;0.30;0.20;;;;;;;14.49;89.17;97202.06;5033928;28;20832;-51
2023/11/02 11:26:21;;;;;;;0.30;0.20;;;;;;;14.88;88.72;97207.31;5033854;28;20551;-51
2023/11/02 11:28:48;;;;;;;0.30;0.20;;;;;;;14.74;88.67;97200.59;5033715;28;20452;-51
2023/11/02 11:31:49;;;;;;;0.30;0.20;;;;;;;14.73;88.06;97199.75;5033320;28;20423;-51
2023/11/02 11:34:16;;;;;;;0.30;0.20;;;;;;;14.63;88.00;97161.50;5033534;28;20456;-51
2023/11/02 11:36:42;;;;;;;0.30;0.20;;;;;;;14.68;88.46;97183.31;5033344;28;20894;-51
2023/11/02 11:39:35;;;;;;;0.30;0.20;;;;;;;14.60;88.21;97196.56;5033405;28;20523;-51
2023/11/02 11:42:01;;;;;;;0.30;0.20;;;;;;;14.54;88.02;97185.63;5023412;28;20549;-51
2023/11/02 11:44:28;;;;;;;0.30;0.20;;;;;;;14.56;87.46;97210.38;5032982;28;20550;-51
2023/11/02 11:46:56;;;;;;;0.30;0.20;;;;;;;14.69;87.19;97193.03;5033468;28;20444;-51